Terminal Aerodrome Forecast
Issued by NWS Amarillo, TX

Home | Current Version | Previous Version | Text Only | Print | Product List | Glossary On
Versions: 1 2 3 4 5 6 7 8 9 10 11 12 13
000
FTUS44 KAMA 021720
TAFAMA
TAF
KAMA 021720Z 0218/0318 08013KT P6SM OVC030
     FM022300 03010KT 6SM -SHRA OVC025
     FM030500 02013KT 2SM -RASN OVC005=

USA.gov is the U.S. government's official web portal to all federal, state and local government web resources and services.